Portada
METAR-TAF:

METAR-TAF

Aeroports :

Foz do Iguaçu, Paranà, Brasil

latitud: 25-31S, longitud: 054-35W, altitud: 180 m

Observació

L'informe es va fer fa 1 hora i 3 minuts, a les 17:00 UTC
Vent 7 kt del Nord/Nord-Est
Temperatura 24°C
Humitat 38%
Pressió 1018 hPa
Visibilitat 10 km o més
sense núvols per sota de 1500 mi sense presència de cumulonimbus.

METAR: SBFI 291700Z 03007KT CAVOK 24/09 Q1018

Hora: 15:03 (18:03 UTC)

Pronòstic

L'informe es va fer fa 3 hores i 3 minuts, a les 15:00 UTC
Pronòstic vàlid del 29 a les 18 UTC al 30 a les 18 UTC
Vent 5 kt del Est/Sud-Est
Visibilitat 10 km o més
sense núvols per sota de 1500 mi sense presència de cumulonimbus.
Probabilitat 30%
l' 30 a les 08 UTC al 30 a les 10 UTC
Visibilitat: 0600 m
Cel ennuvolat a una alçada de 200 ft
boira

TAF: SBFI 291500Z 2918/3018 11005KT CAVOK TN11/3008Z TX23/3018Z PROB30 3008/3010 0600 FG BKN002 RMK PEQ

Observacions i pronòstics meteorològics de més de 4000 aeroports (METAR i TAF).

Les estacions disponibles són els punts grocs i vermells al mapa.

Posi el ratolí al punt desitjat per veure el nom de l'estació.

Feu clic per veure les observacions i els pronòstics meteorològics.

Per canviar el mapa: feu clic els botons verds amb una creu de color negre per apropar; al botó verd amb un guió per allunyar la imatge; o en les fletxes verdes per a mapes adjacents.


METAR-TAF: